sensor_id;sensor_type;location;lat;lon;timestamp;P1;durP1;ratioP1;P2;durP2;ratioP2
1390;SDS011;690;51.454;7.194;2023-03-01T00:01:26;13.43;;;8.40;;
1390;SDS011;690;51.454;7.194;2023-03-01T00:03:55;12.07;;;8.73;;
1390;SDS011;690;51.454;7.194;2023-03-01T00:06:24;10.88;;;8.95;;
1390;SDS011;690;51.454;7.194;2023-03-01T00:08:52;11.35;;;8.63;;
1390;SDS011;690;51.454;7.194;2023-03-01T00:11:19;14.13;;;9.27;;
1390;SDS011;690;51.454;7.194;2023-03-01T00:13:49;13.48;;;9.20;;
1390;SDS011;690;51.454;7.194;2023-03-01T00:16:18;10.70;;;7.85;;
1390;SDS011;690;51.454;7.194;2023-03-01T00:18:47;12.18;;;8.10;;
1390;SDS011;690;51.454;7.194;2023-03-01T00:21:14;12.63;;;8.98;;
1390;SDS011;690;51.454;7.194;2023-03-01T00:23:42;11.30;;;8.27;;
1390;SDS011;690;51.454;7.194;2023-03-01T00:26:10;10.10;;;9.00;;
1390;SDS011;690;51.454;7.194;2023-03-01T00:28:38;13.65;;;9.00;;
1390;SDS011;690;51.454;7.194;2023-03-01T00:31:06;12.02;;;9.70;;
1390;SDS011;690;51.454;7.194;2023-03-01T00:33:35;12.30;;;9.57;;
1390;SDS011;690;51.454;7.194;2023-03-01T00:36:03;12.23;;;9.55;;
1390;SDS011;690;51.454;7.194;2023-03-01T00:38:30;11.40;;;9.25;;
1390;SDS011;690;51.454;7.194;2023-03-01T00:41:04;11.90;;;9.00;;
1390;SDS011;690;51.454;7.194;2023-03-01T00:43:31;10.25;;;9.07;;
1390;SDS011;690;51.454;7.194;2023-03-01T00:46:02;10.15;;;8.45;;
1390;SDS011;690;51.454;7.194;2023-03-01T00:48:30;12.27;;;8.45;;
1390;SDS011;690;51.454;7.194;2023-03-01T00:51:03;13.85;;;8.98;;
1390;SDS011;690;51.454;7.194;2023-03-01T00:53:31;12.23;;;8.43;;
1390;SDS011;690;51.454;7.194;2023-03-01T00:55:58;13.80;;;9.45;;
1390;SDS011;690;51.454;7.194;2023-03-01T00:58:26;12.60;;;8.57;;
1390;SDS011;690;51.454;7.194;2023-03-01T01:00:53;11.55;;;9.55;;
1390;SDS011;690;51.454;7.194;2023-03-01T01:03:20;12.75;;;8.75;;
1390;SDS011;690;51.454;7.194;2023-03-01T01:05:49;11.25;;;8.65;;
1390;SDS011;690;51.454;7.194;2023-03-01T01:08:16;14.77;;;9.25;;
1390;SDS011;690;51.454;7.194;2023-03-01T01:10:43;9.82;;;8.25;;
1390;SDS011;690;51.454;7.194;2023-03-01T01:13:10;12.13;;;9.30;;
1390;SDS011;690;51.454;7.194;2023-03-01T01:15:39;14.73;;;9.43;;
1390;SDS011;690;51.454;7.194;2023-03-01T01:18:06;12.07;;;9.38;;
1390;SDS011;690;51.454;7.194;2023-03-01T01:20:34;11.73;;;9.38;;
1390;SDS011;690;51.454;7.194;2023-03-01T01:23:01;12.73;;;9.15;;
1390;SDS011;690;51.454;7.194;2023-03-01T01:25:28;12.90;;;8.85;;
1390;SDS011;690;51.454;7.194;2023-03-01T01:27:55;16.48;;;9.50;;
1390;SDS011;690;51.454;7.194;2023-03-01T01:30:22;13.75;;;9.00;;
1390;SDS011;690;51.454;7.194;2023-03-01T01:32:50;10.68;;;9.35;;
1390;SDS011;690;51.454;7.194;2023-03-01T01:35:17;14.02;;;10.10;;
1390;SDS011;690;51.454;7.194;2023-03-01T01:37:44;10.93;;;9.02;;
1390;SDS011;690;51.454;7.194;2023-03-01T01:40:11;9.90;;;8.88;;
1390;SDS011;690;51.454;7.194;2023-03-01T01:42:39;12.27;;;9.15;;
1390;SDS011;690;51.454;7.194;2023-03-01T01:45:24;11.35;;;8.52;;
1390;SDS011;690;51.454;7.194;2023-03-01T01:47:55;12.55;;;9.02;;
1390;SDS011;690;51.454;7.194;2023-03-01T01:50:26;18.52;;;9.32;;
1390;SDS011;690;51.454;7.194;2023-03-01T01:52:58;11.93;;;9.13;;
1390;SDS011;690;51.454;7.194;2023-03-01T01:55:25;13.88;;;9.48;;
1390;SDS011;690;51.454;7.194;2023-03-01T01:57:54;13.80;;;9.02;;
1390;SDS011;690;51.454;7.194;2023-03-01T02:00:24;13.32;;;10.00;;
1390;SDS011;690;51.454;7.194;2023-03-01T02:02:56;12.80;;;9.25;;
1390;SDS011;690;51.454;7.194;2023-03-01T02:05:26;10.88;;;8.45;;
1390;SDS011;690;51.454;7.194;2023-03-01T02:08:01;11.52;;;10.00;;
1390;SDS011;690;51.454;7.194;2023-03-01T02:10:28;13.35;;;8.55;;
1390;SDS011;690;51.454;7.194;2023-03-01T02:12:58;13.00;;;9.93;;
1390;SDS011;690;51.454;7.194;2023-03-01T02:15:25;12.20;;;8.57;;
1390;SDS011;690;51.454;7.194;2023-03-01T02:17:53;12.80;;;9.52;;
1390;SDS011;690;51.454;7.194;2023-03-01T02:20:23;10.82;;;9.68;;
1390;SDS011;690;51.454;7.194;2023-03-01T02:22:55;14.10;;;10.10;;
1390;SDS011;690;51.454;7.194;2023-03-01T02:25:28;10.90;;;9.30;;
1390;SDS011;690;51.454;7.194;2023-03-01T02:28:02;12.63;;;9.52;;
1390;SDS011;690;51.454;7.194;2023-03-01T02:30:36;11.38;;;8.50;;
1390;SDS011;690;51.454;7.194;2023-03-01T02:33:23;12.07;;;9.15;;
1390;SDS011;690;51.454;7.194;2023-03-01T02:35:50;11.57;;;9.55;;
1390;SDS011;690;51.454;7.194;2023-03-01T02:38:20;13.65;;;8.85;;
1390;SDS011;690;51.454;7.194;2023-03-01T02:40:48;11.63;;;9.38;;
1390;SDS011;690;51.454;7.194;2023-03-01T02:43:19;14.45;;;9.10;;
1390;SDS011;690;51.454;7.194;2023-03-01T02:45:53;15.60;;;10.20;;
1390;SDS011;690;51.454;7.194;2023-03-01T02:48:24;12.35;;;8.73;;
1390;SDS011;690;51.454;7.194;2023-03-01T02:50:59;14.90;;;10.20;;
1390;SDS011;690;51.454;7.194;2023-03-01T02:53:39;12.85;;;9.75;;
1390;SDS011;690;51.454;7.194;2023-03-01T02:56:14;15.45;;;9.38;;
1390;SDS011;690;51.454;7.194;2023-03-01T02:58:41;17.80;;;10.07;;
1390;SDS011;690;51.454;7.194;2023-03-01T03:01:14;12.75;;;10.77;;
1390;SDS011;690;51.454;7.194;2023-03-01T03:03:41;12.90;;;9.45;;
1390;SDS011;690;51.454;7.194;2023-03-01T03:06:08;10.80;;;9.05;;
1390;SDS011;690;51.454;7.194;2023-03-01T03:08:35;14.25;;;9.18;;
1390;SDS011;690;51.454;7.194;2023-03-01T03:11:02;12.15;;;9.30;;
1390;SDS011;690;51.454;7.194;2023-03-01T03:13:29;10.88;;;9.27;;
1390;SDS011;690;51.454;7.194;2023-03-01T03:15:57;16.08;;;10.02;;
1390;SDS011;690;51.454;7.194;2023-03-01T03:18:25;13.82;;;9.98;;
1390;SDS011;690;51.454;7.194;2023-03-01T03:20:52;12.40;;;10.15;;
1390;SDS011;690;51.454;7.194;2023-03-01T03:23:20;12.90;;;9.55;;
1390;SDS011;690;51.454;7.194;2023-03-01T03:25:48;13.52;;;9.88;;
1390;SDS011;690;51.454;7.194;2023-03-01T03:28:15;14.38;;;9.80;;
1390;SDS011;690;51.454;7.194;2023-03-01T03:30:42;10.55;;;8.55;;
1390;SDS011;690;51.454;7.194;2023-03-01T03:33:10;19.60;;;11.05;;
1390;SDS011;690;51.454;7.194;2023-03-01T03:35:40;15.57;;;9.95;;
1390;SDS011;690;51.454;7.194;2023-03-01T03:38:09;12.40;;;8.98;;
1390;SDS011;690;51.454;7.194;2023-03-01T03:40:42;14.00;;;10.45;;
1390;SDS011;690;51.454;7.194;2023-03-01T03:43:11;14.68;;;10.50;;
1390;SDS011;690;51.454;7.194;2023-03-01T03:45:41;13.95;;;10.00;;
1390;SDS011;690;51.454;7.194;2023-03-01T03:48:09;15.60;;;10.90;;
1390;SDS011;690;51.454;7.194;2023-03-01T03:50:38;14.65;;;9.73;;
1390;SDS011;690;51.454;7.194;2023-03-01T03:53:07;12.85;;;9.10;;
1390;SDS011;690;51.454;7.194;2023-03-01T03:55:35;13.05;;;9.55;;
1390;SDS011;690;51.454;7.194;2023-03-01T03:58:04;13.23;;;9.15;;
1390;SDS011;690;51.454;7.194;2023-03-01T04:00:32;14.23;;;10.40;;
1390;SDS011;690;51.454;7.194;2023-03-01T04:03:01;16.05;;;10.63;;
1390;SDS011;690;51.454;7.194;2023-03-01T04:05:28;13.18;;;9.60;;
1390;SDS011;690;51.454;7.194;2023-03-01T04:07:57;10.50;;;9.40;;
1390;SDS011;690;51.454;7.194;2023-03-01T04:10:27;14.45;;;10.32;;
1390;SDS011;690;51.454;7.194;2023-03-01T04:12:55;14.57;;;10.20;;
1390;SDS011;690;51.454;7.194;2023-03-01T04:15:22;13.43;;;9.45;;
1390;SDS011;690;51.454;7.194;2023-03-01T04:17:51;17.58;;;11.38;;
1390;SDS011;690;51.454;7.194;2023-03-01T04:20:19;14.52;;;9.30;;
1390;SDS011;690;51.454;7.194;2023-03-01T04:22:49;15.50;;;10.52;;
1390;SDS011;690;51.454;7.194;2023-03-01T04:25:18;11.88;;;9.45;;
1390;SDS011;690;51.454;7.194;2023-03-01T04:27:45;17.70;;;10.65;;
1390;SDS011;690;51.454;7.194;2023-03-01T04:30:12;15.63;;;10.52;;
1390;SDS011;690;51.454;7.194;2023-03-01T04:32:39;13.98;;;9.70;;
1390;SDS011;690;51.454;7.194;2023-03-01T04:35:07;12.07;;;9.65;;
1390;SDS011;690;51.454;7.194;2023-03-01T04:37:34;12.25;;;9.25;;
1390;SDS011;690;51.454;7.194;2023-03-01T04:40:01;14.60;;;9.73;;
1390;SDS011;690;51.454;7.194;2023-03-01T04:42:39;12.73;;;9.60;;
1390;SDS011;690;51.454;7.194;2023-03-01T04:45:07;14.52;;;10.07;;
1390;SDS011;690;51.454;7.194;2023-03-01T04:47:38;13.43;;;10.10;;
1390;SDS011;690;51.454;7.194;2023-03-01T04:50:06;13.48;;;9.38;;
1390;SDS011;690;51.454;7.194;2023-03-01T04:52:34;19.63;;;9.48;;
1390;SDS011;690;51.454;7.194;2023-03-01T04:55:01;13.73;;;9.85;;
1390;SDS011;690;51.454;7.194;2023-03-01T04:57:29;13.35;;;10.55;;
1390;SDS011;690;51.454;7.194;2023-03-01T04:59:58;14.25;;;9.30;;
1390;SDS011;690;51.454;7.194;2023-03-01T05:02:25;11.73;;;8.63;;
1390;SDS011;690;51.454;7.194;2023-03-01T05:04:52;14.45;;;9.63;;
1390;SDS011;690;51.454;7.194;2023-03-01T05:07:22;13.50;;;9.05;;
1390;SDS011;690;51.454;7.194;2023-03-01T05:09:49;14.73;;;9.23;;
1390;SDS011;690;51.454;7.194;2023-03-01T05:12:16;17.60;;;10.77;;
1390;SDS011;690;51.454;7.194;2023-03-01T05:14:43;14.02;;;9.70;;
1390;SDS011;690;51.454;7.194;2023-03-01T05:17:11;15.95;;;11.25;;
1390;SDS011;690;51.454;7.194;2023-03-01T05:19:38;13.80;;;9.70;;
1390;SDS011;690;51.454;7.194;2023-03-01T05:22:07;11.02;;;8.90;;
1390;SDS011;690;51.454;7.194;2023-03-01T05:24:34;12.80;;;10.35;;
1390;SDS011;690;51.454;7.194;2023-03-01T05:27:03;14.23;;;9.85;;
1390;SDS011;690;51.454;7.194;2023-03-01T05:29:31;16.80;;;9.77;;
1390;SDS011;690;51.454;7.194;2023-03-01T05:32:00;14.20;;;10.02;;
1390;SDS011;690;51.454;7.194;2023-03-01T05:34:30;11.32;;;9.32;;
1390;SDS011;690;51.454;7.194;2023-03-01T05:36:58;14.75;;;10.13;;
1390;SDS011;690;51.454;7.194;2023-03-01T05:39:26;10.95;;;9.23;;
1390;SDS011;690;51.454;7.194;2023-03-01T05:41:54;16.33;;;10.68;;
1390;SDS011;690;51.454;7.194;2023-03-01T05:44:22;12.60;;;10.02;;
1390;SDS011;690;51.454;7.194;2023-03-01T05:46:49;11.88;;;9.50;;
1390;SDS011;690;51.454;7.194;2023-03-01T05:49:16;16.52;;;10.75;;
1390;SDS011;690;51.454;7.194;2023-03-01T05:51:47;14.05;;;10.50;;
1390;SDS011;690;51.454;7.194;2023-03-01T05:54:15;20.85;;;11.15;;
1390;SDS011;690;51.454;7.194;2023-03-01T05:56:42;16.63;;;10.27;;
1390;SDS011;690;51.454;7.194;2023-03-01T05:59:10;15.10;;;10.57;;
1390;SDS011;690;51.454;7.194;2023-03-01T06:01:38;14.70;;;10.80;;
1390;SDS011;690;51.454;7.194;2023-03-01T06:04:06;13.02;;;9.90;;
1390;SDS011;690;51.454;7.194;2023-03-01T06:06:33;14.10;;;10.35;;
1390;SDS011;690;51.454;7.194;2023-03-01T06:09:03;15.65;;;10.73;;
1390;SDS011;690;51.454;7.194;2023-03-01T06:11:33;17.38;;;12.10;;
1390;SDS011;690;51.454;7.194;2023-03-01T06:14:00;14.77;;;10.20;;
1390;SDS011;690;51.454;7.194;2023-03-01T06:16:27;18.55;;;10.50;;
1390;SDS011;690;51.454;7.194;2023-03-01T06:18:53;18.52;;;10.55;;
1390;SDS011;690;51.454;7.194;2023-03-01T06:21:20;16.40;;;11.43;;
1390;SDS011;690;51.454;7.194;2023-03-01T06:23:47;17.02;;;11.50;;
1390;SDS011;690;51.454;7.194;2023-03-01T06:26:16;17.58;;;11.65;;
1390;SDS011;690;51.454;7.194;2023-03-01T06:28:42;14.88;;;11.13;;
1390;SDS011;690;51.454;7.194;2023-03-01T06:31:11;19.38;;;11.98;;
1390;SDS011;690;51.454;7.194;2023-03-01T06:33:38;18.10;;;11.65;;
1390;SDS011;690;51.454;7.194;2023-03-01T06:36:05;18.23;;;11.35;;
1390;SDS011;690;51.454;7.194;2023-03-01T06:38:32;13.95;;;10.85;;
1390;SDS011;690;51.454;7.194;2023-03-01T06:40:59;14.65;;;10.93;;
1390;SDS011;690;51.454;7.194;2023-03-01T06:43:28;15.75;;;10.80;;
1390;SDS011;690;51.454;7.194;2023-03-01T06:45:55;17.67;;;10.13;;
1390;SDS011;690;51.454;7.194;2023-03-01T06:48:22;17.48;;;10.25;;
1390;SDS011;690;51.454;7.194;2023-03-01T06:50:49;14.07;;;10.90;;
1390;SDS011;690;51.454;7.194;2023-03-01T06:53:15;17.38;;;11.63;;
1390;SDS011;690;51.454;7.194;2023-03-01T06:55:42;16.23;;;11.85;;
1390;SDS011;690;51.454;7.194;2023-03-01T06:58:09;19.48;;;11.85;;
1390;SDS011;690;51.454;7.194;2023-03-01T07:00:38;17.58;;;12.23;;
1390;SDS011;690;51.454;7.194;2023-03-01T07:03:05;16.50;;;12.20;;
1390;SDS011;690;51.454;7.194;2023-03-01T07:05:33;15.98;;;11.80;;
1390;SDS011;690;51.454;7.194;2023-03-01T07:08:00;14.18;;;10.68;;
1390;SDS011;690;51.454;7.194;2023-03-01T07:10:26;14.88;;;10.70;;
1390;SDS011;690;51.454;7.194;2023-03-01T07:12:54;15.27;;;10.63;;
1390;SDS011;690;51.454;7.194;2023-03-01T07:15:21;17.70;;;11.13;;
1390;SDS011;690;51.454;7.194;2023-03-01T07:17:50;17.85;;;11.93;;
1390;SDS011;690;51.454;7.194;2023-03-01T07:20:17;16.58;;;11.73;;
1390;SDS011;690;51.454;7.194;2023-03-01T07:22:47;21.63;;;13.73;;
1390;SDS011;690;51.454;7.194;2023-03-01T07:25:14;23.13;;;12.75;;
1390;SDS011;690;51.454;7.194;2023-03-01T07:27:41;21.35;;;13.25;;
1390;SDS011;690;51.454;7.194;2023-03-01T07:30:08;23.75;;;13.10;;
1390;SDS011;690;51.454;7.194;2023-03-01T07:32:36;22.23;;;14.07;;
1390;SDS011;690;51.454;7.194;2023-03-01T07:35:04;19.48;;;11.48;;
1390;SDS011;690;51.454;7.194;2023-03-01T07:37:32;16.23;;;10.85;;
1390;SDS011;690;51.454;7.194;2023-03-01T07:39:59;23.42;;;11.23;;
1390;SDS011;690;51.454;7.194;2023-03-01T07:42:26;21.88;;;11.68;;
1390;SDS011;690;51.454;7.194;2023-03-01T07:44:52;23.25;;;12.48;;
1390;SDS011;690;51.454;7.194;2023-03-01T07:47:19;30.02;;;13.50;;
1390;SDS011;690;51.454;7.194;2023-03-01T07:49:46;22.25;;;11.90;;
1390;SDS011;690;51.454;7.194;2023-03-01T07:52:14;26.70;;;12.70;;
1390;SDS011;690;51.454;7.194;2023-03-01T07:54:42;18.88;;;12.50;;
1390;SDS011;690;51.454;7.194;2023-03-01T07:57:10;14.52;;;9.82;;
1390;SDS011;690;51.454;7.194;2023-03-01T07:59:37;15.80;;;10.65;;
1390;SDS011;690;51.454;7.194;2023-03-01T08:02:04;12.88;;;9.65;;
1390;SDS011;690;51.454;7.194;2023-03-01T08:04:31;21.95;;;12.25;;
1390;SDS011;690;51.454;7.194;2023-03-01T08:06:58;14.38;;;9.25;;
1390;SDS011;690;51.454;7.194;2023-03-01T08:09:26;16.58;;;10.50;;
1390;SDS011;690;51.454;7.194;2023-03-01T08:11:53;23.92;;;11.27;;
1390;SDS011;690;51.454;7.194;2023-03-01T08:14:22;16.38;;;10.20;;
1390;SDS011;690;51.454;7.194;2023-03-01T08:16:49;17.92;;;9.98;;
1390;SDS011;690;51.454;7.194;2023-03-01T08:19:16;18.70;;;11.60;;
1390;SDS011;690;51.454;7.194;2023-03-01T08:21:43;24.75;;;10.25;;
1390;SDS011;690;51.454;7.194;2023-03-01T08:24:10;14.63;;;10.23;;
1390;SDS011;690;51.454;7.194;2023-03-01T08:26:38;10.63;;;7.85;;
1390;SDS011;690;51.454;7.194;2023-03-01T08:29:04;11.18;;;8.90;;
1390;SDS011;690;51.454;7.194;2023-03-01T08:31:33;14.63;;;10.00;;
1390;SDS011;690;51.454;7.194;2023-03-01T08:34:02;17.33;;;10.52;;
1390;SDS011;690;51.454;7.194;2023-03-01T08:36:32;13.38;;;9.40;;
1390;SDS011;690;51.454;7.194;2023-03-01T08:39:00;13.95;;;9.57;;
1390;SDS011;690;51.454;7.194;2023-03-01T08:41:27;25.23;;;11.27;;
1390;SDS011;690;51.454;7.194;2023-03-01T08:43:56;13.68;;;9.27;;
1390;SDS011;690;51.454;7.194;2023-03-01T08:46:24;15.27;;;9.25;;
1390;SDS011;690;51.454;7.194;2023-03-01T08:48:52;18.38;;;8.80;;
1390;SDS011;690;51.454;7.194;2023-03-01T08:51:19;14.93;;;8.70;;
1390;SDS011;690;51.454;7.194;2023-03-01T08:53:46;15.55;;;9.38;;
1390;SDS011;690;51.454;7.194;2023-03-01T08:56:14;17.48;;;10.40;;
1390;SDS011;690;51.454;7.194;2023-03-01T08:58:43;10.57;;;7.78;;
1390;SDS011;690;51.454;7.194;2023-03-01T09:01:13;17.55;;;10.48;;
1390;SDS011;690;51.454;7.194;2023-03-01T09:03:41;12.60;;;9.70;;
1390;SDS011;690;51.454;7.194;2023-03-01T09:06:08;11.82;;;8.45;;
1390;SDS011;690;51.454;7.194;2023-03-01T09:08:35;16.52;;;10.90;;
1390;SDS011;690;51.454;7.194;2023-03-01T09:11:03;13.95;;;9.48;;
1390;SDS011;690;51.454;7.194;2023-03-01T09:13:31;22.67;;;11.07;;
1390;SDS011;690;51.454;7.194;2023-03-01T09:15:58;19.50;;;9.40;;
1390;SDS011;690;51.454;7.194;2023-03-01T09:18:28;14.55;;;9.00;;
1390;SDS011;690;51.454;7.194;2023-03-01T09:21:00;14.63;;;9.70;;
1390;SDS011;690;51.454;7.194;2023-03-01T09:23:27;12.55;;;8.82;;
1390;SDS011;690;51.454;7.194;2023-03-01T09:25:54;17.45;;;9.68;;
1390;SDS011;690;51.454;7.194;2023-03-01T09:28:20;12.30;;;8.52;;
1390;SDS011;690;51.454;7.194;2023-03-01T09:30:48;14.55;;;7.35;;
1390;SDS011;690;51.454;7.194;2023-03-01T09:33:15;10.80;;;8.23;;
1390;SDS011;690;51.454;7.194;2023-03-01T09:35:43;10.02;;;7.38;;
1390;SDS011;690;51.454;7.194;2023-03-01T09:38:12;10.02;;;7.72;;
1390;SDS011;690;51.454;7.194;2023-03-01T09:40:41;14.48;;;9.27;;
1390;SDS011;690;51.454;7.194;2023-03-01T09:43:13;9.38;;;7.10;;
1390;SDS011;690;51.454;7.194;2023-03-01T09:45:44;11.77;;;7.60;;
1390;SDS011;690;51.454;7.194;2023-03-01T09:48:16;11.32;;;8.07;;
1390;SDS011;690;51.454;7.194;2023-03-01T09:50:48;12.40;;;7.65;;
1390;SDS011;690;51.454;7.194;2023-03-01T09:53:16;25.50;;;9.20;;
1390;SDS011;690;51.454;7.194;2023-03-01T09:55:45;15.20;;;8.32;;
1390;SDS011;690;51.454;7.194;2023-03-01T10:01:27;12.10;;;6.53;;
1390;SDS011;690;51.454;7.194;2023-03-01T10:04:12;10.70;;;6.90;;
1390;SDS011;690;51.454;7.194;2023-03-01T10:06:54;7.75;;;6.47;;
1390;SDS011;690;51.454;7.194;2023-03-01T10:09:27;10.37;;;7.30;;
1390;SDS011;690;51.454;7.194;2023-03-01T10:11:59;14.23;;;7.60;;
1390;SDS011;690;51.454;7.194;2023-03-01T10:14:30;12.55;;;7.28;;
1390;SDS011;690;51.454;7.194;2023-03-01T10:17:02;11.95;;;7.32;;
1390;SDS011;690;51.454;7.194;2023-03-01T10:19:32;10.27;;;7.10;;
1390;SDS011;690;51.454;7.194;2023-03-01T10:22:05;9.75;;;6.63;;
1390;SDS011;690;51.454;7.194;2023-03-01T10:24:39;10.45;;;7.88;;
1390;SDS011;690;51.454;7.194;2023-03-01T10:27:07;13.10;;;7.70;;
1390;SDS011;690;51.454;7.194;2023-03-01T10:29:41;9.88;;;7.22;;
1390;SDS011;690;51.454;7.194;2023-03-01T10:32:11;8.25;;;6.80;;
1390;SDS011;690;51.454;7.194;2023-03-01T10:34:38;7.53;;;6.72;;
1390;SDS011;690;51.454;7.194;2023-03-01T10:37:11;10.63;;;7.32;;
1390;SDS011;690;51.454;7.194;2023-03-01T10:42:30;7.25;;;6.10;;
1390;SDS011;690;51.454;7.194;2023-03-01T10:45:02;9.35;;;7.07;;
1390;SDS011;690;51.454;7.194;2023-03-01T10:47:57;9.63;;;6.73;;
1390;SDS011;690;51.454;7.194;2023-03-01T10:50:30;13.35;;;6.95;;
1390;SDS011;690;51.454;7.194;2023-03-01T10:52:59;8.18;;;6.65;;
1390;SDS011;690;51.454;7.194;2023-03-01T10:55:29;11.70;;;7.60;;
1390;SDS011;690;51.454;7.194;2023-03-01T10:58:06;8.77;;;6.80;;
1390;SDS011;690;51.454;7.194;2023-03-01T11:00:48;11.90;;;7.03;;
1390;SDS011;690;51.454;7.194;2023-03-01T11:03:18;7.50;;;6.65;;
1390;SDS011;690;51.454;7.194;2023-03-01T11:05:52;10.05;;;7.20;;
1390;SDS011;690;51.454;7.194;2023-03-01T11:11:19;10.00;;;6.73;;
1390;SDS011;690;51.454;7.194;2023-03-01T11:13:57;10.13;;;7.13;;
1390;SDS011;690;51.454;7.194;2023-03-01T11:16:27;7.77;;;6.50;;
1390;SDS011;690;51.454;7.194;2023-03-01T11:18:57;10.00;;;7.07;;
1390;SDS011;690;51.454;7.194;2023-03-01T11:21:28;8.50;;;6.40;;
1390;SDS011;690;51.454;7.194;2023-03-01T11:23:58;10.30;;;7.10;;
1390;SDS011;690;51.454;7.194;2023-03-01T11:26:27;11.30;;;7.20;;
1390;SDS011;690;51.454;7.194;2023-03-01T11:28:58;7.70;;;6.47;;
1390;SDS011;690;51.454;7.194;2023-03-01T11:31:32;9.70;;;6.50;;
1390;SDS011;690;51.454;7.194;2023-03-01T11:34:02;10.67;;;6.77;;
1390;SDS011;690;51.454;7.194;2023-03-01T11:36:34;10.03;;;6.87;;
1390;SDS011;690;51.454;7.194;2023-03-01T11:41:58;12.70;;;7.70;;
1390;SDS011;690;51.454;7.194;2023-03-01T11:44:30;12.53;;;7.33;;
1390;SDS011;690;51.454;7.194;2023-03-01T11:47:05;9.37;;;7.57;;
1390;SDS011;690;51.454;7.194;2023-03-01T11:52:48;8.77;;;6.90;;
1390;SDS011;690;51.454;7.194;2023-03-01T11:55:26;9.30;;;6.80;;
1390;SDS011;690;51.454;7.194;2023-03-01T11:58:14;9.43;;;7.37;;
1390;SDS011;690;51.454;7.194;2023-03-01T12:00:59;8.90;;;7.27;;
1390;SDS011;690;51.454;7.194;2023-03-01T12:03:34;12.57;;;8.20;;
1390;SDS011;690;51.454;7.194;2023-03-01T12:06:32;8.63;;;7.00;;
1390;SDS011;690;51.454;7.194;2023-03-01T12:09:15;12.67;;;7.70;;
1390;SDS011;690;51.454;7.194;2023-03-01T12:11:56;11.60;;;6.90;;
1390;SDS011;690;51.454;7.194;2023-03-01T12:14:47;11.13;;;7.20;;
1390;SDS011;690;51.454;7.194;2023-03-01T12:17:34;10.37;;;7.47;;
1390;SDS011;690;51.454;7.194;2023-03-01T12:20:20;18.53;;;10.60;;
1390;SDS011;690;51.454;7.194;2023-03-01T12:22:57;13.63;;;7.87;;
1390;SDS011;690;51.454;7.194;2023-03-01T12:25:43;23.17;;;9.63;;
1390;SDS011;690;51.454;7.194;2023-03-01T12:28:22;30.27;;;10.30;;
1390;SDS011;690;51.454;7.194;2023-03-01T12:34:03;19.33;;;9.37;;
1390;SDS011;690;51.454;7.194;2023-03-01T12:36:46;13.63;;;7.83;;
1390;SDS011;690;51.454;7.194;2023-03-01T12:39:27;11.40;;;7.80;;
1390;SDS011;690;51.454;7.194;2023-03-01T12:42:08;11.30;;;8.17;;
1390;SDS011;690;51.454;7.194;2023-03-01T12:44:51;10.10;;;7.80;;
1390;SDS011;690;51.454;7.194;2023-03-01T12:47:31;23.20;;;8.97;;
1390;SDS011;690;51.454;7.194;2023-03-01T12:50:11;12.20;;;7.87;;
1390;SDS011;690;51.454;7.194;2023-03-01T12:52:44;10.50;;;7.33;;
1390;SDS011;690;51.454;7.194;2023-03-01T12:55:19;14.17;;;7.90;;
1390;SDS011;690;51.454;7.194;2023-03-01T12:57:53;11.17;;;7.70;;
1390;SDS011;690;51.454;7.194;2023-03-01T13:00:31;8.97;;;7.70;;
1390;SDS011;690;51.454;7.194;2023-03-01T13:03:04;10.30;;;7.90;;
1390;SDS011;690;51.454;7.194;2023-03-01T13:05:56;10.30;;;7.67;;
1390;SDS011;690;51.454;7.194;2023-03-01T13:08:36;8.40;;;7.10;;
1390;SDS011;690;51.454;7.194;2023-03-01T13:11:11;11.93;;;7.83;;
1390;SDS011;690;51.454;7.194;2023-03-01T13:13:42;8.20;;;6.70;;
1390;SDS011;690;51.454;7.194;2023-03-01T13:16:38;12.60;;;8.10;;
1390;SDS011;690;51.454;7.194;2023-03-01T13:19:08;11.17;;;7.67;;
1390;SDS011;690;51.454;7.194;2023-03-01T13:21:39;10.40;;;6.97;;
1390;SDS011;690;51.454;7.194;2023-03-01T13:29:55;14.20;;;8.60;;
1390;SDS011;690;51.454;7.194;2023-03-01T13:32:27;13.07;;;8.53;;
1390;SDS011;690;51.454;7.194;2023-03-01T13:35:00;10.13;;;7.73;;
1390;SDS011;690;51.454;7.194;2023-03-01T13:37:32;19.50;;;9.20;;
1390;SDS011;690;51.454;7.194;2023-03-01T13:40:02;13.10;;;8.47;;
1390;SDS011;690;51.454;7.194;2023-03-01T13:42:44;9.43;;;7.80;;
1390;SDS011;690;51.454;7.194;2023-03-01T13:45:22;11.30;;;8.57;;
1390;SDS011;690;51.454;7.194;2023-03-01T13:48:01;10.07;;;8.63;;
1390;SDS011;690;51.454;7.194;2023-03-01T13:50:32;14.23;;;8.80;;
1390;SDS011;690;51.454;7.194;2023-03-01T13:53:04;9.40;;;7.30;;
1390;SDS011;690;51.454;7.194;2023-03-01T13:55:35;11.70;;;7.70;;
1390;SDS011;690;51.454;7.194;2023-03-01T13:58:15;10.80;;;8.40;;
1390;SDS011;690;51.454;7.194;2023-03-01T14:00:45;10.17;;;8.00;;
1390;SDS011;690;51.454;7.194;2023-03-01T14:03:14;14.17;;;8.83;;
1390;SDS011;690;51.454;7.194;2023-03-01T14:05:43;10.97;;;7.33;;
1390;SDS011;690;51.454;7.194;2023-03-01T14:08:23;13.23;;;8.40;;
1390;SDS011;690;51.454;7.194;2023-03-01T14:14:03;12.27;;;8.70;;
1390;SDS011;690;51.454;7.194;2023-03-01T14:16:42;10.77;;;7.87;;
1390;SDS011;690;51.454;7.194;2023-03-01T14:19:18;9.00;;;7.73;;
1390;SDS011;690;51.454;7.194;2023-03-01T14:21:52;10.10;;;7.70;;
1390;SDS011;690;51.454;7.194;2023-03-01T14:24:27;11.67;;;8.10;;
1390;SDS011;690;51.454;7.194;2023-03-01T14:26:55;11.50;;;7.63;;
1390;SDS011;690;51.454;7.194;2023-03-01T14:29:26;12.53;;;8.43;;
1390;SDS011;690;51.454;7.194;2023-03-01T14:31:54;10.77;;;7.83;;
1390;SDS011;690;51.454;7.194;2023-03-01T14:34:23;9.50;;;7.80;;
1390;SDS011;690;51.454;7.194;2023-03-01T14:36:50;13.50;;;8.00;;
1390;SDS011;690;51.454;7.194;2023-03-01T14:39:18;9.63;;;7.50;;
1390;SDS011;690;51.454;7.194;2023-03-01T14:41:50;12.33;;;7.93;;
1390;SDS011;690;51.454;7.194;2023-03-01T14:44:19;11.80;;;8.40;;
1390;SDS011;690;51.454;7.194;2023-03-01T14:46:51;12.53;;;8.90;;
1390;SDS011;690;51.454;7.194;2023-03-01T14:49:21;9.37;;;7.63;;
1390;SDS011;690;51.454;7.194;2023-03-01T14:51:52;13.03;;;8.17;;
1390;SDS011;690;51.454;7.194;2023-03-01T14:54:23;12.77;;;8.87;;
1390;SDS011;690;51.454;7.194;2023-03-01T14:56:53;11.20;;;8.07;;
1390;SDS011;690;51.454;7.194;2023-03-01T14:59:23;11.40;;;8.50;;
1390;SDS011;690;51.454;7.194;2023-03-01T15:01:51;12.17;;;8.03;;
1390;SDS011;690;51.454;7.194;2023-03-01T15:04:20;9.60;;;8.10;;
1390;SDS011;690;51.454;7.194;2023-03-01T15:06:51;13.97;;;8.40;;
1390;SDS011;690;51.454;7.194;2023-03-01T15:09:18;9.17;;;6.87;;
1390;SDS011;690;51.454;7.194;2023-03-01T15:11:47;9.70;;;7.83;;
1390;SDS011;690;51.454;7.194;2023-03-01T15:14:25;14.67;;;8.50;;
1390;SDS011;690;51.454;7.194;2023-03-01T15:16:54;12.10;;;7.83;;
1390;SDS011;690;51.454;7.194;2023-03-01T15:19:21;11.67;;;8.27;;
1390;SDS011;690;51.454;7.194;2023-03-01T15:21:53;11.20;;;7.83;;
1390;SDS011;690;51.454;7.194;2023-03-01T15:24:23;10.00;;;7.20;;
1390;SDS011;690;51.454;7.194;2023-03-01T15:26:53;9.63;;;7.40;;
1390;SDS011;690;51.454;7.194;2023-03-01T15:29:23;9.87;;;7.17;;
1390;SDS011;690;51.454;7.194;2023-03-01T15:31:56;11.63;;;7.77;;
1390;SDS011;690;51.454;7.194;2023-03-01T15:34:24;10.40;;;7.27;;
1390;SDS011;690;51.454;7.194;2023-03-01T15:36:55;9.70;;;6.60;;
1390;SDS011;690;51.454;7.194;2023-03-01T15:39:30;9.13;;;6.60;;
1390;SDS011;690;51.454;7.194;2023-03-01T15:42:03;11.97;;;7.60;;
1390;SDS011;690;51.454;7.194;2023-03-01T15:44:32;9.47;;;6.10;;
1390;SDS011;690;51.454;7.194;2023-03-01T15:47:01;10.30;;;6.70;;
1390;SDS011;690;51.454;7.194;2023-03-01T15:49:35;8.83;;;6.10;;
1390;SDS011;690;51.454;7.194;2023-03-01T15:52:09;10.10;;;6.97;;
1390;SDS011;690;51.454;7.194;2023-03-01T15:54:45;10.00;;;6.47;;
1390;SDS011;690;51.454;7.194;2023-03-01T15:57:12;9.80;;;6.23;;
1390;SDS011;690;51.454;7.194;2023-03-01T15:59:39;9.40;;;6.50;;